Time;durP1;ratioP1;P1;durP2;ratioP2;P2;SDS_P1;SDS_P2;PMS_P1;PMS_P2;Temp;Humidity;BMP_temperature;BMP_pressure;BME280_temperature;BME280_humidity;BME280_pressure;Samples;Min_cycle;Max_cycle;Signal;HPM_P1;HPM_P2
2022/12/28 00:00:22;;;;;;;0.20;0.20;;;;;;;-0.41;100.00;101296.81;6246536;22;20008;-90
2022/12/28 00:02:47;;;;;;;4.57;1.90;;;;;;;-0.29;100.00;101315.97;6220632;22;20319;-89
2022/12/28 00:05:13;;;;;;;3.72;1.40;;;;;;;-0.21;100.00;101315.09;6246106;22;20036;-92
2022/12/28 00:07:39;;;;;;;0.47;0.47;;;;;;;-0.39;100.00;101297.28;6246454;22;20007;-90
2022/12/28 00:10:05;;;;;;;4.40;1.90;;;;;;;-0.36;100.00;101302.06;6246665;22;20014;-89
2022/12/28 00:12:31;;;;;;;1.15;1.15;;;;;;;-0.45;100.00;101276.81;6220836;22;20438;-90
2022/12/28 00:14:58;;;;;;;3.53;1.70;;;;;;;-0.25;100.00;101308.72;6247255;22;20015;-90
2022/12/28 00:17:26;;;;;;;0.85;0.85;;;;;;;-0.57;100.00;101255.75;6273319;22;20377;-90
2022/12/28 00:19:52;;;;;;;1.75;1.65;;;;;;;-0.32;100.00;101302.22;6245903;22;20432;-90
2022/12/28 00:22:18;;;;;;;1.92;1.80;;;;;;;-0.53;100.00;101274.94;6246192;22;20011;-89
2022/12/28 00:24:43;;;;;;;1.60;1.45;;;;;;;-0.31;100.00;101304.59;6246694;22;20456;-90
2022/12/28 00:27:09;;;;;;;1.85;1.75;;;;;;;-0.61;100.00;101262.97;6245879;22;20007;-90
2022/12/28 00:29:34;;;;;;;0.50;0.17;;;;;;;-0.46;100.00;101280.66;6221018;22;20505;-90
2022/12/28 00:32:00;;;;;;;1.42;1.08;;;;;;;-0.45;100.00;101279.53;6245180;22;20003;-90
2022/12/28 00:34:26;;;;;;;3.53;1.45;;;;;;;-0.42;100.00;101292.50;6221601;22;20012;-91
2022/12/28 00:36:52;;;;;;;0.75;0.75;;;;;;;-0.31;100.00;101299.13;6271449;22;20082;-89
2022/12/28 00:39:18;;;;;;;0.40;0.40;;;;;;;-0.30;100.00;101306.19;6246404;22;20498;-90
2022/12/28 00:41:44;;;;;;;1.65;0.73;;;;;;;-0.33;100.00;101290.50;6219565;22;20061;-90
2022/12/28 00:44:09;;;;;;;2.08;1.20;;;;;;;-0.32;100.00;101307.66;6245990;22;20090;-90
2022/12/28 00:46:35;;;;;;;2.40;0.85;;;;;;;-0.61;100.00;101273.09;6246263;22;20019;-90
2022/12/28 00:49:00;;;;;;;0.85;0.85;;;;;;;-0.50;100.00;101285.97;6246218;22;20012;-90
2022/12/28 00:51:26;;;;;;;1.65;1.10;;;;;;;-0.44;100.00;101293.97;6246250;22;20022;-90
2022/12/28 00:53:52;;;;;;;1.77;1.67;;;;;;;-0.68;100.00;101261.91;6246082;22;20073;-90
2022/12/28 00:56:21;;;;;;;1.10;1.00;;;;;;;-0.66;100.00;101265.91;6246391;22;20384;-90
2022/12/28 00:58:46;;;;;;;2.45;2.30;;;;;;;-0.63;100.00;101276.13;6220233;22;20027;-90
2022/12/28 01:01:18;;;;;;;0.60;0.60;;;;;;;-0.47;100.00;101292.69;6218752;22;20434;-91
2022/12/28 01:03:44;;;;;;;0.65;0.65;;;;;;;-0.80;100.00;101249.00;6195341;22;20103;-90
2022/12/28 01:06:13;;;;;;;1.10;1.10;;;;;;;-0.61;100.00;101290.25;6195590;22;20043;-90
2022/12/28 01:08:40;;;;;;;2.13;1.75;;;;;;;-0.65;100.00;101288.50;6246243;22;20445;-90
2022/12/28 01:11:17;;;;;;;0.43;0.43;;;;;;;-0.69;100.00;101288.38;6245977;22;20008;-89
2022/12/28 01:13:43;;;;;;;0.70;0.70;;;;;;;-1.08;100.00;101237.81;6245975;22;20083;-90
2022/12/28 01:16:11;;;;;;;0.50;0.50;;;;;;;-0.87;100.00;101272.44;6194533;22;20094;-90
2022/12/28 01:18:37;;;;;;;1.02;0.95;;;;;;;-0.88;100.00;101270.84;6245770;22;20011;-89
2022/12/28 01:21:10;;;;;;;3.35;1.45;;;;;;;-0.87;100.00;101269.72;6220532;22;20010;-91
2022/12/28 01:23:35;;;;;;;1.58;1.48;;;;;;;-0.76;100.00;101281.81;6245143;22;20015;-90
2022/12/28 01:26:02;;;;;;;0.85;0.82;;;;;;;-0.76;100.00;101279.91;6245354;22;20083;-90
2022/12/28 01:28:28;;;;;;;1.65;0.82;;;;;;;-0.85;100.00;101262.03;6245924;22;20035;-91
2022/12/28 01:30:53;;;;;;;0.10;0.10;;;;;;;-0.85;100.00;101257.38;6245212;22;20055;-90
2022/12/28 01:33:19;;;;;;;0.65;0.65;;;;;;;-0.80;100.00;101261.81;6243977;22;20477;-90
2022/12/28 01:35:46;;;;;;;0.40;0.40;;;;;;;-0.76;100.00;101263.56;6221048;22;20000;-90
2022/12/28 01:38:12;;;;;;;0.08;0.08;;;;;;;-0.66;100.00;101276.00;6245277;22;20023;-91
2022/12/28 01:40:41;;;;;;;1.08;1.08;;;;;;;-0.75;100.00;101272.53;6195664;22;20004;-90
2022/12/28 01:43:12;;;;;;;0.22;0.22;;;;;;;-0.93;100.00;101252.00;6245449;22;20047;-89
2022/12/28 01:45:38;;;;;;;1.27;0.73;;;;;;;-0.83;100.00;101276.09;6245502;22;20015;-90
2022/12/28 01:48:04;;;;;;;1.23;1.13;;;;;;;-1.07;100.00;101239.41;6219464;22;20027;-90
2022/12/28 01:50:30;;;;;;;0.43;0.43;;;;;;;-0.89;100.00;101266.53;6196166;22;20004;-90
2022/12/28 01:53:04;;;;;;;0.20;0.20;;;;;;;-0.89;100.00;101274.72;6196474;22;20019;-90
2022/12/28 01:55:35;;;;;;;0.50;0.50;;;;;;;-1.07;100.00;101254.94;6249509;22;20345;-89
2022/12/28 01:58:05;;;;;;;0.32;0.32;;;;;;;-0.95;100.00;101274.91;6247818;22;20023;-91
2022/12/28 02:00:32;;;;;;;2.28;1.02;;;;;;;-0.97;100.00;101266.25;6247248;22;20111;-90
2022/12/28 02:03:09;;;;;;;0.73;0.70;;;;;;;-0.96;100.00;101267.84;6246820;22;20008;-89
2022/12/28 02:05:40;;;;;;;0.20;0.20;;;;;;;-0.98;100.00;101270.13;6195246;22;20122;-91
2022/12/28 02:08:47;;;;;;;0.30;0.30;;;;;;;-0.98;100.00;101281.00;6246469;22;20023;-90
2022/12/28 02:11:14;;;;;;;1.75;1.48;;;;;;;-1.11;100.00;101249.38;6207569;22;20023;-90
2022/12/28 02:13:42;;;;;;;1.55;0.75;;;;;;;-1.12;100.00;101261.38;6244764;22;20011;-90
2022/12/28 02:16:09;;;;;;;0.60;0.60;;;;;;;-1.25;100.00;101248.78;6245049;22;20015;-91
2022/12/28 02:18:35;;;;;;;0.30;0.30;;;;;;;-1.19;100.00;101263.81;6221119;22;20015;-90
2022/12/28 02:21:22;;;;;;;0.85;0.85;;;;;;;-1.17;100.00;101263.50;6247649;22;20432;-90
2022/12/28 02:24:22;;;;;;;0.25;0.25;;;;;;;-1.14;100.00;101271.00;6220550;22;20024;-91
2022/12/28 02:27:03;;;;;;;1.15;0.93;;;;;;;-1.17;100.00;101258.84;6244888;22;20073;-90
2022/12/28 02:29:41;;;;;;;0.65;0.65;;;;;;;-1.22;100.00;101259.03;6245956;22;20016;-91
2022/12/28 02:32:28;;;;;;;4.65;1.20;;;;;;;-1.30;100.00;101265.31;6246703;22;20102;-90
2022/12/28 02:35:24;;;;;;;0.00;0.00;;;;;;;-1.37;100.00;101261.53;6220972;22;20026;-90
2022/12/28 02:37:58;;;;;;;0.10;0.10;;;;;;;-1.39;100.00;101261.03;6220769;22;20007;-90
2022/12/28 02:40:30;;;;;;;2.47;2.28;;;;;;;-1.58;100.00;101245.13;6194887;22;20345;-90
2022/12/28 02:42:57;;;;;;;0.00;0.00;;;;;;;-1.72;100.00;101225.47;6244659;22;20069;-91
2022/12/28 02:51:25;;;;;;;0.35;0.35;;;;;;;-1.54;100.00;101254.22;6250890;22;20102;-89
2022/12/28 02:57:26;;;;;;;0.47;0.47;;;;;;;-1.61;100.00;101252.00;6249149;22;20536;-91
2022/12/28 02:59:54;;;;;;;1.02;1.02;;;;;;;-1.62;100.00;101244.16;6219285;22;20026;-90
2022/12/28 03:02:29;;;;;;;0.00;0.00;;;;;;;-1.59;100.00;101251.69;6194127;22;20014;-90
2022/12/28 03:05:06;;;;;;;0.55;0.55;;;;;;;-1.75;100.00;101223.41;6219235;22;20346;-89
2022/12/28 03:11:03;;;;;;;0.85;0.85;;;;;;;-1.59;100.00;101233.44;6249633;22;20011;-90
2022/12/28 03:13:55;;;;;;;0.15;0.15;;;;;;;-1.61;100.00;101230.22;6245010;22;20478;-91
2022/12/28 03:16:28;;;;;;;0.47;0.47;;;;;;;-1.61;100.00;101226.69;6269379;22;20085;-90
2022/12/28 03:33:05;;;;;;;0.20;0.20;;;;;;;-1.81;100.00;101202.94;6250146;22;20464;-90
2022/12/28 03:35:56;;;;;;;0.32;0.32;;;;;;;-1.69;100.00;101227.53;6221390;22;20016;-90
2022/12/28 03:38:52;;;;;;;0.45;0.45;;;;;;;-1.71;100.00;101224.34;6221357;22;20023;-90
2022/12/28 03:41:27;;;;;;;0.93;0.90;;;;;;;-1.81;100.00;101198.31;6238284;22;20033;-91
2022/12/28 03:44:03;;;;;;;1.10;1.08;;;;;;;-1.73;100.00;101204.81;6247085;22;20041;-90
2022/12/28 03:46:54;;;;;;;1.55;1.35;;;;;;;-1.71;100.00;101219.72;6221576;22;20008;-91
2022/12/28 03:49:22;;;;;;;1.67;1.58;;;;;;;-1.73;100.00;101215.72;6220995;22;20385;-90
2022/12/28 03:51:48;;;;;;;0.05;0.05;;;;;;;-1.73;100.00;101204.81;6246674;22;20008;-90
2022/12/28 03:54:18;;;;;;;0.00;0.00;;;;;;;-1.73;100.00;101196.66;6197705;22;20043;-90
2022/12/28 03:56:46;;;;;;;0.05;0.05;;;;;;;-1.60;100.00;101220.16;6246770;22;20062;-91
2022/12/28 03:59:13;;;;;;;0.30;0.30;;;;;;;-1.67;100.00;101208.97;6246449;22;20039;-91
2022/12/28 04:01:42;;;;;;;0.77;0.47;;;;;;;-1.59;100.00;101211.66;6196793;22;20011;-92
2022/12/28 04:04:08;;;;;;;0.65;0.65;;;;;;;-1.76;100.00;101200.03;6247101;22;20022;-91
2022/12/28 04:06:34;;;;;;;0.20;0.20;;;;;;;-1.71;100.00;101191.72;6216147;23;20022;-90
2022/12/28 04:09:00;;;;;;;1.45;1.30;;;;;;;-1.78;100.00;101188.72;6215909;23;20016;-91
2022/12/28 04:11:28;;;;;;;0.20;0.20;;;;;;;-1.88;100.00;101171.63;6216837;23;20050;-91
2022/12/28 04:13:55;;;;;;;0.05;0.05;;;;;;;-1.68;100.00;101207.38;6215871;23;20020;-90
2022/12/28 04:16:21;;;;;;;0.00;0.00;;;;;;;-1.71;100.00;101189.78;6190227;23;20018;-90
2022/12/28 04:18:47;;;;;;;0.95;0.95;;;;;;;-1.95;100.00;101155.03;6216202;23;20023;-91
2022/12/28 04:21:14;;;;;;;0.38;0.38;;;;;;;-2.00;100.00;101152.47;6239875;22;20334;-91
2022/12/28 04:23:43;;;;;;;0.25;0.25;;;;;;;-1.79;100.00;101185.19;6241544;22;20115;-91
2022/12/28 04:26:16;;;;;;;0.57;0.57;;;;;;;-1.84;100.00;101192.72;6215566;23;20044;-90
2022/12/28 04:28:43;;;;;;;5.38;1.35;;;;;;;-2.16;100.00;101148.69;6240582;23;20012;-90
2022/12/28 04:31:18;;;;;;;3.38;3.05;;;;;;;-2.01;100.00;101167.19;6251005;23;20004;-90
2022/12/28 04:33:50;;;;;;;1.20;1.20;;;;;;;-2.07;100.00;101154.91;6217368;23;20011;-90
2022/12/28 04:36:16;;;;;;;0.20;0.20;;;;;;;-2.17;100.00;101141.66;6190529;23;20026;-89
2022/12/28 04:38:44;;;;;;;0.30;0.30;;;;;;;-2.06;100.00;101175.50;6241577;22;20008;-90
2022/12/28 04:41:10;;;;;;;0.98;0.47;;;;;;;-2.12;100.00;101155.06;6241104;23;20076;-90
2022/12/28 04:43:36;;;;;;;0.80;0.80;;;;;;;-2.19;100.00;101141.19;6215775;23;20508;-91
2022/12/28 04:46:04;;;;;;;0.98;0.98;;;;;;;-1.94;100.00;101172.91;6214759;23;20119;-91
2022/12/28 04:48:30;;;;;;;0.55;0.55;;;;;;;-2.02;100.00;101146.53;6240934;23;20013;-90
2022/12/28 04:50:56;;;;;;;0.20;0.20;;;;;;;-1.79;100.00;101168.88;6240396;23;20016;-90
2022/12/28 04:53:22;;;;;;;0.10;0.10;;;;;;;-1.75;100.00;101174.44;6240766;23;20366;-91
2022/12/28 04:55:48;;;;;;;0.38;0.38;;;;;;;-1.75;100.00;101169.00;6241313;22;20338;-90
2022/12/28 04:58:13;;;;;;;0.40;0.40;;;;;;;-1.94;100.00;101134.84;6240936;23;20019;-90
2022/12/28 05:00:39;;;;;;;0.70;0.70;;;;;;;-1.81;100.00;101154.78;6240374;23;20000;-91
2022/12/28 05:03:05;;;;;;;0.63;0.63;;;;;;;-1.96;100.00;101137.09;6215120;23;20031;-90
2022/12/28 05:05:31;;;;;;;1.55;1.45;;;;;;;-1.83;100.00;101156.25;6271035;22;20008;-92
2022/12/28 05:08:00;;;;;;;0.93;0.73;;;;;;;-1.83;100.00;101153.53;6220577;22;20027;-91
2022/12/28 05:10:27;;;;;;;0.10;0.10;;;;;;;-1.93;100.00;101146.50;6220602;22;20410;-91
2022/12/28 05:12:54;;;;;;;0.95;0.80;;;;;;;-1.86;100.00;101151.47;6192516;22;20029;-90
2022/12/28 05:15:19;;;;;;;0.65;0.65;;;;;;;-1.99;100.00;101132.31;6194209;22;20007;-91
2022/12/28 05:17:45;;;;;;;0.20;0.20;;;;;;;-1.92;100.00;101146.19;6218035;22;20073;-91
2022/12/28 05:20:11;;;;;;;0.20;0.20;;;;;;;-1.91;100.00;101145.09;6243559;22;20004;-91
2022/12/28 05:22:36;;;;;;;0.00;0.00;;;;;;;-1.89;100.00;101156.41;6217743;22;20016;-89
2022/12/28 05:25:02;;;;;;;5.18;1.05;;;;;;;-2.36;100.00;101070.59;6244144;22;20012;-91
2022/12/28 05:27:27;;;;;;;1.02;1.02;;;;;;;-1.86;100.00;101151.47;6218502;22;20015;-91
2022/12/28 05:29:53;;;;;;;0.43;0.43;;;;;;;-1.79;100.00;101151.75;6220863;22;20046;-91
2022/12/28 05:32:18;;;;;;;0.30;0.30;;;;;;;-1.80;100.00;101150.16;6220379;22;20032;-89
2022/12/28 05:34:44;;;;;;;2.20;1.75;;;;;;;-1.72;100.00;101146.59;6194537;22;20015;-90
2022/12/28 05:37:10;;;;;;;0.93;0.47;;;;;;;-1.89;100.00;101125.69;6245264;22;20396;-90
2022/12/28 05:39:35;;;;;;;0.65;0.52;;;;;;;-1.99;100.00;101104.34;6243924;22;20369;-90
2022/12/28 05:42:01;;;;;;;0.65;0.32;;;;;;;-1.90;100.00;101113.25;6218899;22;20091;-90
2022/12/28 05:44:27;;;;;;;0.98;0.85;;;;;;;-1.72;100.00;101146.59;6245341;22;20016;-89
2022/12/28 05:46:52;;;;;;;1.25;1.13;;;;;;;-1.54;100.00;101159.78;6219165;22;20578;-90
2022/12/28 05:49:18;;;;;;;0.80;0.80;;;;;;;-1.53;100.00;101153.19;6193179;22;20007;-90
2022/12/28 05:51:43;;;;;;;0.43;0.43;;;;;;;-1.49;100.00;101151.41;6244368;22;20019;-89
2022/12/28 05:54:09;;;;;;;2.03;1.85;;;;;;;-1.44;100.00;101139.56;6242121;22;20353;-90
2022/12/28 05:56:34;;;;;;;0.68;0.63;;;;;;;-1.35;100.00;101132.13;6219116;22;20011;-90
2022/12/28 05:59:02;;;;;;;0.88;0.88;;;;;;;-1.28;100.00;101137.84;6221365;22;20016;-89
2022/12/28 06:01:30;;;;;;;0.68;0.68;;;;;;;-1.34;100.00;101124.78;6194824;22;20012;-89
2022/12/28 06:04:16;;;;;;;3.08;1.13;;;;;;;-1.17;100.00;101144.47;6244534;22;20015;-90
2022/12/28 06:06:41;;;;;;;0.43;0.43;;;;;;;-1.14;100.00;101157.47;6271329;22;20406;-90
2022/12/28 06:09:07;;;;;;;0.00;0.00;;;;;;;-1.16;100.00;101148.81;6219420;22;20043;-89
2022/12/28 06:11:32;;;;;;;5.43;1.80;;;;;;;-1.06;100.00;101153.06;6245676;22;20012;-87
2022/12/28 06:13:58;;;;;;;2.05;1.88;;;;;;;-1.07;100.00;101152.28;6244823;22;20000;-91
2022/12/28 06:16:26;;;;;;;4.13;3.72;;;;;;;-1.02;100.00;101149.34;6194417;22;20016;-91
2022/12/28 06:18:52;;;;;;;0.60;0.60;;;;;;;-1.09;100.00;101149.06;6244874;22;20069;-92
2022/12/28 06:21:24;;;;;;;0.73;0.73;;;;;;;-1.04;100.00;101157.06;6220556;22;20021;-93
2022/12/28 06:23:49;;;;;;;0.90;0.35;;;;;;;-1.09;100.00;101149.06;6221102;22;20070;-91
2022/12/28 06:26:17;;;;;;;0.43;0.43;;;;;;;-1.04;100.00;101167.94;6195447;22;20437;-91
2022/12/28 06:28:44;;;;;;;3.30;2.63;;;;;;;-1.10;100.00;101144.78;6193978;22;20503;-91
2022/12/28 06:31:11;;;;;;;0.80;0.80;;;;;;;-0.96;100.00;101153.47;6242188;22;20008;-91
2022/12/28 06:33:36;;;;;;;1.77;1.45;;;;;;;-1.02;100.00;101149.34;6243238;22;20075;-91
2022/12/28 06:36:02;;;;;;;0.95;0.95;;;;;;;-1.07;100.00;101152.28;6192000;22;20100;-90
2022/12/28 06:38:31;;;;;;;0.47;0.47;;;;;;;-0.96;100.00;101158.91;6217742;22;20225;-91
2022/12/28 06:41:07;;;;;;;0.45;0.45;;;;;;;-0.92;100.00;101164.47;6193522;22;20031;-92
2022/12/28 06:43:34;;;;;;;1.63;1.52;;;;;;;-0.90;100.00;101161.44;6244033;22;20018;-91
2022/12/28 06:46:00;;;;;;;0.52;0.52;;;;;;;-0.90;100.00;101156.00;6218342;22;20039;-91
2022/12/28 06:48:26;;;;;;;2.28;1.20;;;;;;;-0.87;100.00;101150.66;6247124;22;20039;-91
2022/12/28 06:50:56;;;;;;;0.30;0.30;;;;;;;-0.80;100.00;101152.84;6196775;22;20111;-91
2022/12/28 06:53:22;;;;;;;1.77;1.27;;;;;;;-0.78;100.00;101145.16;6246889;22;20453;-92
2022/12/28 06:55:56;;;;;;;0.32;0.32;;;;;;;-0.89;100.00;101128.44;6221571;22;20483;-91
2022/12/28 06:58:25;;;;;;;0.35;0.35;;;;;;;-0.71;100.00;101153.56;6245681;22;20099;-91
2022/12/28 07:00:52;;;;;;;2.88;1.45;;;;;;;-0.71;100.00;101156.31;6245947;22;20083;-91
2022/12/28 07:03:18;;;;;;;0.30;0.30;;;;;;;-0.67;100.00;101159.97;6245156;22;20012;-91
2022/12/28 07:05:44;;;;;;;2.92;1.33;;;;;;;-0.72;100.00;101147.31;6245868;22;20016;-91
2022/12/28 07:08:10;;;;;;;1.48;1.40;;;;;;;-0.57;100.00;101159.56;6245239;22;20015;-90
2022/12/28 07:10:36;;;;;;;0.28;0.28;;;;;;;-0.69;100.00;101137.72;6245031;22;20004;-90
2022/12/28 07:13:02;;;;;;;0.40;0.40;;;;;;;-0.69;100.00;101132.25;6194031;22;20480;-90
2022/12/28 07:15:28;;;;;;;0.65;0.65;;;;;;;-0.68;100.00;101125.66;6221340;22;20540;-90
2022/12/28 07:17:54;;;;;;;0.82;0.82;;;;;;;-0.35;100.00;101164.63;6243665;22;20014;-92
2022/12/28 07:20:20;;;;;;;0.63;0.63;;;;;;;-0.32;100.00;101155.75;6247352;22;20680;-94
2022/12/28 07:22:45;;;;;;;1.38;1.27;;;;;;;-0.49;100.00;101120.53;6247591;22;20087;-92
2022/12/28 07:25:11;;;;;;;0.57;0.57;;;;;;;-0.24;100.00;101145.91;6274427;22;20007;-94
2022/12/28 07:27:36;;;;;;;0.55;0.30;;;;;;;-0.20;100.00;101153.06;6222172;22;20090;-92
2022/12/28 07:30:03;;;;;;;2.33;0.75;;;;;;;-0.18;100.00;101134.44;6247397;22;20098;-93
2022/12/28 07:32:29;;;;;;;0.47;0.47;;;;;;;-0.17;100.00;101136.06;6197774;22;20090;-91
2022/12/28 07:34:54;;;;;;;0.88;0.88;;;;;;;-0.17;100.00;101136.06;6247328;22;20089;-93
2022/12/28 07:37:20;;;;;;;0.68;0.68;;;;;;;0.03;100.00;101139.03;6196700;22;20007;-92
2022/12/28 07:39:45;;;;;;;0.45;0.45;;;;;;;-0.18;100.00;101104.44;6247416;22;20095;-93
2022/12/28 07:42:11;;;;;;;1.02;1.02;;;;;;;0.12;100.00;101126.88;6272577;22;20426;-94
2022/12/28 07:44:40;;;;;;;0.00;0.00;;;;;;;-0.03;100.00;101098.31;6222211;22;20004;-92
2022/12/28 07:47:06;;;;;;;0.98;0.95;;;;;;;0.28;100.00;101129.72;6246206;22;20050;-92
2022/12/28 07:49:33;;;;;;;1.60;1.50;;;;;;;0.32;100.00;101127.91;6196850;22;20342;-93
2022/12/28 07:51:58;;;;;;;0.77;0.77;;;;;;;0.23;100.00;101094.47;6246493;22;20322;-92
2022/12/28 07:54:24;;;;;;;0.50;0.50;;;;;;;0.59;100.00;101129.13;6247038;22;20029;-93
2022/12/28 07:56:50;;;;;;;0.50;0.50;;;;;;;0.56;100.00;101108.78;6222144;22;20011;-93
2022/12/28 07:59:15;;;;;;;3.55;0.93;;;;;;;0.65;100.00;101111.38;6247050;22;20314;-93
2022/12/28 08:01:41;;;;;;;1.92;0.63;;;;;;;0.60;100.00;101097.97;6197205;22;20015;-94
2022/12/28 08:04:13;;;;;;;2.38;2.17;;;;;;;0.73;100.00;101103.03;6220980;22;20015;-93
2022/12/28 08:06:41;;;;;;;0.13;0.13;;;;;;;0.75;100.00;101089.84;6222056;22;20043;-93
2022/12/28 08:09:07;;;;;;;0.93;0.93;;;;;;;0.99;100.00;101110.84;6246936;22;20030;-93
2022/12/28 08:11:35;;;;;;;6.40;0.90;;;;;;;1.12;100.00;101117.06;6196841;22;20004;-90
2022/12/28 08:14:01;;;;;;;0.80;0.80;;;;;;;1.20;100.00;101122.38;6246244;22;20014;-93
2022/12/28 08:16:29;;;;;;;2.25;2.03;;;;;;;1.35;100.00;101129.03;6246703;22;20008;-93
2022/12/28 08:18:55;;;;;;;0.32;0.32;;;;;;;1.16;100.00;101088.69;6196182;22;20090;-92
2022/12/28 08:21:28;;;;;;;0.10;0.10;;;;;;;1.40;100.00;101109.66;6247073;22;20038;-93
2022/12/28 08:23:54;;;;;;;2.72;1.33;;;;;;;1.18;100.00;101063.72;6246500;22;20015;-94
2022/12/28 08:26:35;;;;;;;1.27;0.90;;;;;;;1.40;100.00;101076.84;6196941;22;20278;-93
2022/12/28 08:29:03;;;;;;;0.20;0.20;;;;;;;1.78;100.00;101120.81;6196316;22;20102;-94
2022/12/28 08:31:32;;;;;;;0.95;0.93;;;;;;;1.61;100.00;101076.63;6246730;22;20004;-95
2022/12/28 08:33:59;;;;;;;1.67;1.35;;;;;;;1.88;100.00;101119.50;6246263;22;20464;-93
2022/12/28 08:36:25;;;;;;;0.30;0.30;;;;;;;1.68;100.00;101077.59;6221481;22;20008;-93
2022/12/28 08:38:51;;;;;;;0.60;0.60;;;;;;;1.67;100.00;101070.50;6246648;22;19996;-92
2022/12/28 08:41:19;;;;;;;0.15;0.15;;;;;;;1.96;100.00;101104.06;6246544;22;20012;-93
2022/12/28 08:43:44;;;;;;;0.28;0.28;;;;;;;1.81;100.00;101081.03;6246427;22;20031;-94
2022/12/28 08:46:16;;;;;;;0.63;0.45;;;;;;;1.99;100.00;101093.19;6221115;22;20016;-93
2022/12/28 08:48:42;;;;;;;1.55;1.45;;;;;;;2.26;100.00;101116.97;6246297;22;20015;-92
2022/12/28 08:51:10;;;;;;;0.10;0.10;;;;;;;2.26;100.00;101081.38;6196170;22;20095;-93
2022/12/28 08:53:36;;;;;;;0.50;0.50;;;;;;;2.28;100.00;101067.31;6196724;22;20015;-92
2022/12/28 08:56:37;;;;;;;0.30;0.30;;;;;;;2.43;100.00;101050.03;6246181;22;20112;-94
2022/12/28 08:59:04;;;;;;;1.40;1.30;;;;;;;2.46;100.00;101046.63;6240790;22;20011;-94
2022/12/28 09:01:32;;;;;;;0.52;0.52;;;;;;;2.51;100.00;101035.34;6246121;22;20007;-94
2022/12/28 09:03:59;;;;;;;0.40;0.40;;;;;;;2.78;100.00;101074.69;6220209;23;20071;-93
2022/12/28 09:06:37;;;;;;;1.23;0.65;;;;;;;2.95;100.00;101081.69;6216754;23;20062;-93
2022/12/28 09:09:05;;;;;;;0.40;0.40;;;;;;;3.11;100.00;101094.19;6215244;23;20016;-91
2022/12/28 09:11:31;;;;;;;1.30;1.20;;;;;;;3.01;100.00;101055.59;6242167;22;20004;-93
2022/12/28 09:13:57;;;;;;;1.40;1.30;;;;;;;3.24;100.00;101078.34;6191300;23;20320;-94
2022/12/28 09:16:26;;;;;;;0.80;0.50;;;;;;;3.21;100.00;101066.19;6215833;23;20007;-94
2022/12/28 09:18:55;;;;;;;0.20;0.20;;;;;;;3.42;100.00;101104.19;6190797;23;20139;-91
2022/12/28 09:21:23;;;;;;;0.75;0.75;;;;;;;3.36;100.00;101089.16;6241937;22;20342;-93
2022/12/28 09:23:49;;;;;;;0.45;0.45;;;;;;;3.22;100.00;101072.47;6240502;23;20079;-93
2022/12/28 09:26:26;;;;;;;1.45;1.35;;;;;;;3.33;100.00;101091.84;6216255;23;20046;-93
2022/12/28 09:28:54;;;;;;;1.40;0.88;;;;;;;3.10;100.00;101069.88;6190611;23;20070;-92
2022/12/28 09:31:20;;;;;;;0.22;0.20;;;;;;;3.07;100.00;101098.00;6190577;23;20023;-91
2022/12/28 09:33:59;;;;;;;0.45;0.45;;;;;;;3.07;100.00;101087.84;6215508;23;20433;-91
2022/12/28 09:36:31;;;;;;;0.25;0.25;;;;;;;3.41;100.00;101123.75;6241680;23;20012;-91
2022/12/28 09:38:58;;;;;;;1.20;1.17;;;;;;;3.38;100.00;101125.28;6214639;23;20016;-92
2022/12/28 09:41:32;;;;;;;1.98;1.88;;;;;;;3.41;100.00;101108.06;6216053;23;20031;-91
2022/12/28 09:44:08;;;;;;;1.17;0.93;;;;;;;3.59;100.00;101101.00;6242211;22;20476;-91
2022/12/28 09:46:35;;;;;;;1.27;1.23;;;;;;;3.76;100.00;101110.72;6239119;22;20024;-91
2022/12/28 09:49:03;;;;;;;0.10;0.10;;;;;;;3.62;100.00;101061.84;6240735;23;20047;-93
2022/12/28 09:51:34;;;;;;;1.25;0.82;;;;;;;4.04;100.00;101110.41;6240992;23;20008;-90
2022/12/28 09:54:00;;;;;;;1.63;1.15;;;;;;;4.07;100.00;101106.91;6240440;23;20023;-91
2022/12/28 09:56:40;;;;;;;1.00;0.90;;;;;;;4.17;100.00;101087.06;6241297;23;20087;-90
2022/12/28 09:59:06;;;;;;;0.30;0.30;;;;;;;4.49;100.00;101090.31;6215720;23;20012;-91
2022/12/28 10:01:37;;;;;;;0.20;0.20;;;;;;;4.50;100.00;101054.22;6214633;23;20012;-90
2022/12/28 10:04:02;;;;;;;1.02;0.73;;;;;;;4.77;100.00;101054.19;6244947;22;20059;-90
2022/12/28 10:06:35;;;;;;;1.55;1.00;;;;;;;5.07;100.00;101072.25;6246196;22;20008;-90
2022/12/28 10:09:03;;;;;;;0.17;0.17;;;;;;;5.41;92.27;101075.78;6221594;22;20027;-92
2022/12/28 10:11:36;;;;;;;0.22;0.22;;;;;;;5.50;88.77;101053.47;6246534;22;20007;-93
2022/12/28 10:14:10;;;;;;;0.63;0.63;;;;;;;5.66;85.21;101058.75;6246243;22;20107;-94
2022/12/28 10:16:38;;;;;;;0.22;0.22;;;;;;;5.66;83.84;101047.72;6247640;22;20091;-93
2022/12/28 10:19:05;;;;;;;0.15;0.15;;;;;;;5.58;82.18;101036.63;6197072;22;20030;-93
2022/12/28 10:21:31;;;;;;;0.15;0.15;;;;;;;5.50;82.76;100996.44;6248153;22;20322;-93
2022/12/28 10:23:58;;;;;;;2.28;0.50;;;;;;;5.56;74.85;101005.97;6247830;22;20069;-94
2022/12/28 10:26:23;;;;;;;0.00;0.00;;;;;;;5.76;74.99;101027.75;6248058;22;20008;-91
2022/12/28 10:28:57;;;;;;;0.00;0.00;;;;;;;5.83;77.13;101014.03;6247807;22;20015;-91
2022/12/28 10:31:31;;;;;;;1.38;1.23;;;;;;;6.14;76.83;101034.78;6196897;22;20062;-91
2022/12/28 10:33:56;;;;;;;0.20;0.20;;;;;;;6.23;77.29;101013.97;6196869;22;20023;-91
2022/12/28 10:36:23;;;;;;;0.30;0.30;;;;;;;6.23;77.63;101038.75;6222456;22;20007;-91
2022/12/28 10:38:51;;;;;;;0.22;0.22;;;;;;;6.15;78.13;101026.09;6247293;22;20020;-90
2022/12/28 10:41:17;;;;;;;0.00;0.00;;;;;;;6.20;76.63;101028.50;6246955;22;20007;-90
2022/12/28 10:43:46;;;;;;;0.43;0.43;;;;;;;6.31;77.20;100999.06;6222262;22;20015;-89
2022/12/28 10:46:17;;;;;;;0.30;0.30;;;;;;;6.25;75.56;100999.81;6220937;22;20007;-90
2022/12/28 10:48:49;;;;;;;0.77;0.77;;;;;;;6.35;74.42;100999.09;6222034;22;20019;-91
2022/12/28 10:51:19;;;;;;;0.32;0.30;;;;;;;6.46;73.22;101006.25;6246330;22;20090;-89
2022/12/28 10:53:47;;;;;;;0.10;0.10;;;;;;;6.54;72.30;101007.88;6247229;22;20016;-90
2022/12/28 10:56:12;;;;;;;0.47;0.47;;;;;;;6.62;74.01;101002.38;6273655;22;20039;-91
2022/12/28 10:58:43;;;;;;;0.00;0.00;;;;;;;6.77;71.49;100998.50;6274392;22;20442;-89
2022/12/28 11:01:12;;;;;;;0.00;0.00;;;;;;;6.69;71.53;100988.63;6221625;22;20015;-90
2022/12/28 11:03:40;;;;;;;0.10;0.10;;;;;;;6.81;70.17;100988.28;6273816;22;20015;-91
2022/12/28 11:06:10;;;;;;;0.28;0.15;;;;;;;6.85;68.53;100978.06;6247677;22;20008;-90
2022/12/28 11:08:36;;;;;;;0.63;0.63;;;;;;;6.93;65.88;100976.91;6221788;22;20023;-90
2022/12/28 11:11:02;;;;;;;0.13;0.13;;;;;;;6.95;67.58;100958.00;6272635;22;20061;-91
2022/12/28 11:13:27;;;;;;;0.28;0.28;;;;;;;7.11;67.25;100971.44;6247366;22;20023;-90
2022/12/28 11:15:53;;;;;;;3.40;0.95;;;;;;;7.11;66.46;100952.13;6221011;22;20011;-90
2022/12/28 11:18:19;;;;;;;0.25;0.25;;;;;;;7.21;65.75;100954.09;6221114;22;20014;-91
2022/12/28 11:20:47;;;;;;;1.00;0.68;;;;;;;7.18;66.62;100924.53;6247242;22;20065;-90
2022/12/28 11:23:17;;;;;;;0.47;0.47;;;;;;;7.14;64.85;100916.25;6272580;22;20503;-91
2022/12/28 11:25:42;;;;;;;8.88;3.83;;;;;;;7.42;63.75;100949.41;6221636;22;20025;-93
2022/12/28 11:28:15;;;;;;;1.58;0.98;;;;;;;7.64;66.38;100941.13;6221631;22;20400;-93
2022/12/28 11:30:41;;;;;;;0.03;0.03;;;;;;;7.87;65.75;100924.91;6221317;22;20022;-92
2022/12/28 11:33:38;;;;;;;0.65;0.65;;;;;;;7.94;62.23;100917.41;6220792;22;20004;-92
2022/12/28 11:36:04;;;;;;;0.10;0.10;;;;;;;8.01;61.91;100913.81;6221477;22;20054;-92
2022/12/28 11:38:50;;;;;;;0.55;0.55;;;;;;;8.17;58.65;100905.13;6247192;22;20008;-92
2022/12/28 11:41:27;;;;;;;0.00;0.00;;;;;;;8.19;57.95;100909.06;6196704;22;20020;-91
2022/12/28 11:43:54;;;;;;;1.08;1.08;;;;;;;8.25;56.96;100901.91;6246379;22;20102;-92
2022/12/28 11:46:19;;;;;;;0.25;0.25;;;;;;;8.49;56.66;100893.97;6222566;22;20089;-91
2022/12/28 11:49:21;;;;;;;0.00;0.00;;;;;;;8.55;57.69;100875.75;6248944;22;20315;-92
2022/12/28 11:52:16;;;;;;;0.00;0.00;;;;;;;8.47;54.72;100836.31;6224210;22;20072;-91
2022/12/28 11:54:53;;;;;;;0.00;0.00;;;;;;;8.24;54.74;100872.72;6246305;22;20093;-93
2022/12/28 11:57:42;;;;;;;0.10;0.10;;;;;;;8.27;56.17;100860.84;6221684;22;20098;-92